Time;durP1;ratioP1;P1;durP2;ratioP2;P2;SDS_P1;SDS_P2;PMS_P1;PMS_P2;Temp;Humidity;BMP_temperature;BMP_pressure;BME280_temperature;BME280_humidity;BME280_pressure;Samples;Min_cycle;Max_cycle;Signal;HPM_P1;HPM_P2
2021/12/15 00:00:50;;;;;;;;;;;;;;;;;;2098730;28;19924;-43
2021/12/15 00:01:51;;;;;;;;;;;;;;;;;;2098779;28;20361;-43
2021/12/15 00:02:53;;;;;;;;;;;;;;;;;;2098745;28;19936;-44
2021/12/15 00:03:54;;;;;;;;;;;;;;;;;;2096837;28;19932;-44
2021/12/15 00:04:55;;;;;;;;;;;;;;;;;;2107350;28;20347;-44
2021/12/15 00:05:56;;;;;;;;;;;;;;;;;;2107172;28;20363;-44
2021/12/15 00:06:57;;;;;;;;;;;;;;;;;;2098631;28;19928;-44
2021/12/15 00:07:58;;;;;;;;;;;;;;;;;;2098909;28;20019;-44
2021/12/15 00:08:59;;;;;;;;;;;;;;;;;;2098372;28;19946;-44
2021/12/15 00:10:00;;;;;;;;;;;;;;;;;;2100031;28;19924;-44
2021/12/15 00:11:01;;;;;;;;;;;;;;;;;;2107208;28;19924;-44
2021/12/15 00:12:04;;;;;;;;;;;;;;;;;;2105261;28;20369;-44
2021/12/15 00:13:04;;;;;;;;;;;;;;;;;;2098315;28;19968;-44
2021/12/15 00:14:05;;;;;;;;;;;;;;;;;;2098873;28;20381;-44
2021/12/15 00:15:06;;;;;;;;;;;;;;;;;;2098263;28;20003;-44
2021/12/15 00:16:07;;;;;;;;;;;;;;;;;;2101651;28;19924;-44
2021/12/15 00:17:08;;;;;;;;;;;;;;;;;;2107031;28;19963;-44
2021/12/15 00:18:09;;;;;;;;;;;;;;;;;;2103351;28;19928;-41
2021/12/15 00:19:10;;;;;;;;;;;;;;;;;;2099496;28;20019;-44
2021/12/15 00:20:11;;;;;;;;;;;;;;;;;;2098680;28;19929;-44
2021/12/15 00:21:12;;;;;;;;;;;;;;;;;;2097920;28;19951;-44
2021/12/15 00:22:13;;;;;;;;;;;;;;;;;;2099371;28;20373;-42
2021/12/15 00:23:13;;;;;;;;;;;;;;;;;;2098841;28;20007;-42
2021/12/15 00:24:14;;;;;;;;;;;;;;;;;;2097573;28;19924;-43
2021/12/15 00:25:15;;;;;;;;;;;;;;;;;;2099453;28;20368;-43
2021/12/15 00:26:16;;;;;;;;;;;;;;;;;;2098663;28;19936;-43
2021/12/15 00:27:17;;;;;;;;;;;;;;;;;;2097582;28;20012;-43
2021/12/15 00:28:18;;;;;;;;;;;;;;;;;;2103906;28;19924;-42
2021/12/15 00:29:19;;;;;;;;;;;;;;;;;;2107053;28;19954;-42
2021/12/15 00:30:20;;;;;;;;;;;;;;;;;;2101204;28;20015;-43
2021/12/15 00:31:21;;;;;;;;;;;;;;;;;;2097782;28;20327;-41
2021/12/15 00:32:22;;;;;;;;;;;;;;;;;;2098601;28;19932;-44
2021/12/15 00:33:23;;;;;;;;;;;;;;;;;;2098691;28;19931;-44
2021/12/15 00:34:24;;;;;;;;;;;;;;;;;;2098517;28;19925;-44
2021/12/15 00:35:25;;;;;;;;;;;;;;;;;;2098675;28;19925;-44
2021/12/15 00:36:26;;;;;;;;;;;;;;;;;;2097468;28;19938;-44
2021/12/15 00:37:27;;;;;;;;;;;;;;;;;;2106771;28;20384;-43
2021/12/15 00:38:28;;;;;;;;;;;;;;;;;;2106972;28;20011;-43
2021/12/15 00:39:29;;;;;;;;;;;;;;;;;;2098882;28;19925;-43
2021/12/15 00:40:30;;;;;;;;;;;;;;;;;;2106857;28;19928;-42
2021/12/15 00:41:31;;;;;;;;;;;;;;;;;;2106975;28;19924;-43
2021/12/15 00:42:31;;;;;;;;;;;;;;;;;;2098680;28;20003;-44
2021/12/15 00:43:32;;;;;;;;;;;;;;;;;;2098518;28;19928;-44
2021/12/15 00:44:33;;;;;;;;;;;;;;;;;;2097594;28;20276;-42
2021/12/15 00:45:34;;;;;;;;;;;;;;;;;;2100530;28;19933;-43
2021/12/15 00:46:35;;;;;;;;;;;;;;;;;;2106932;28;20412;-42
2021/12/15 00:47:36;;;;;;;;;;;;;;;;;;2105481;28;19924;-43
2021/12/15 00:48:38;;;;;;;;;;;;;;;;;;2098824;28;20381;-43
2021/12/15 00:49:39;;;;;;;;;;;;;;;;;;2098533;28;20404;-44
2021/12/15 00:50:40;;;;;;;;;;;;;;;;;;2097918;28;19925;-42
2021/12/15 00:51:42;;;;;;;;;;;;;;;;;;2098857;28;19926;-43
2021/12/15 00:52:43;;;;;;;;;;;;;;;;;;2098500;28;20023;-44
2021/12/15 00:53:44;;;;;;;;;;;;;;;;;;2097700;28;20405;-43
2021/12/15 00:54:45;;;;;;;;;;;;;;;;;;2100242;28;20011;-42
2021/12/15 00:55:46;;;;;;;;;;;;;;;;;;2098319;28;19925;-43
2021/12/15 00:56:46;;;;;;;;;;;;;;;;;;2098382;28;19975;-42
2021/12/15 00:57:47;;;;;;;;;;;;;;;;;;2103148;28;19935;-44
2021/12/15 00:58:48;;;;;;;;;;;;;;;;;;2106827;28;19971;-42
2021/12/15 00:59:49;;;;;;;;;;;;;;;;;;2102072;28;20369;-42
2021/12/15 01:00:50;;;;;;;;;;;;;;;;;;2099329;28;20054;-43
2021/12/15 01:01:51;;;;;;;;;;;;;;;;;;2098572;28;20403;-44
2021/12/15 01:02:52;;;;;;;;;;;;;;;;;;2098557;28;19925;-42
2021/12/15 01:03:54;;;;;;;;;;;;;;;;;;2099409;28;19928;-42
2021/12/15 01:04:54;;;;;;;;;;;;;;;;;;2098475;28;19971;-43
2021/12/15 01:05:59;;;;;;;;;;;;;;;;;;2097939;28;20763;-42
2021/12/15 01:06:59;;;;;;;;;;;;;;;;;;2098322;28;20376;-42
2021/12/15 01:08:01;;;;;;;;;;;;;;;;;;2098575;28;19924;-42
2021/12/15 01:09:03;;;;;;;;;;;;;;;;;;2099102;28;20029;-42
2021/12/15 01:10:04;;;;;;;;;;;;;;;;;;2106738;28;20007;-42
2021/12/15 01:11:10;;;;;;;;;;;;;;;;;;2105412;28;20292;-42
2021/12/15 01:12:19;;;;;;;;;;;;;;;;;;2099225;28;19932;-42
2021/12/15 01:19:54;;;;;;;;;;;;;;;;;;2106014;28;19928;-44
2021/12/15 01:20:55;;;;;;;;;;;;;;;;;;2100471;28;20065;-44
2021/12/15 01:21:56;;;;;;;;;;;;;;;;;;2106657;28;19931;-42
2021/12/15 01:22:56;;;;;;;;;;;;;;;;;;2105104;28;20011;-44
2021/12/15 01:23:58;;;;;;;;;;;;;;;;;;2098532;28;19929;-44
2021/12/15 01:24:58;;;;;;;;;;;;;;;;;;2098393;28;20563;-44
2021/12/15 01:25:59;;;;;;;;;;;;;;;;;;2097817;28;19932;-44
2021/12/15 01:27:00;;;;;;;;;;;;;;;;;;2098722;28;20015;-43
2021/12/15 01:28:01;;;;;;;;;;;;;;;;;;2098318;28;19929;-44
2021/12/15 01:29:02;;;;;;;;;;;;;;;;;;2097552;28;20471;-44
2021/12/15 01:30:03;;;;;;;;;;;;;;;;;;2098559;28;19925;-44
2021/12/15 01:31:04;;;;;;;;;;;;;;;;;;2098394;28;19931;-43
2021/12/15 01:32:05;;;;;;;;;;;;;;;;;;2097224;28;19931;-44
2021/12/15 01:33:06;;;;;;;;;;;;;;;;;;2099045;28;19931;-44
2021/12/15 01:34:07;;;;;;;;;;;;;;;;;;2098312;28;20396;-44
2021/12/15 01:35:07;;;;;;;;;;;;;;;;;;2097478;28;19925;-44
2021/12/15 01:36:08;;;;;;;;;;;;;;;;;;2102113;28;19924;-44
2021/12/15 01:37:09;;;;;;;;;;;;;;;;;;2106648;28;20011;-43
2021/12/15 01:38:10;;;;;;;;;;;;;;;;;;2101343;28;19932;-44
2021/12/15 01:39:11;;;;;;;;;;;;;;;;;;2098889;28;20455;-44
2021/12/15 01:40:17;;;;;;;;;;;;;;;;;;2098362;28;19932;-44
2021/12/15 01:41:21;;;;;;;;;;;;;;;;;;2098090;28;19999;-44
2021/12/15 01:42:23;;;;;;;;;;;;;;;;;;2096907;28;20405;-44
2021/12/15 01:43:32;;;;;;;;;;;;;;;;;;2098207;28;19924;-44
2021/12/15 01:47:11;;;;;;;;;;;;;;;;;;2097451;28;20293;-44
2021/12/15 01:48:13;;;;;;;;;;;;;;;;;;2098371;28;19929;-43
2021/12/15 01:49:14;;;;;;;;;;;;;;;;;;2098285;28;20011;-44
2021/12/15 01:50:15;;;;;;;;;;;;;;;;;;2099108;28;19924;-44
2021/12/15 01:51:15;;;;;;;;;;;;;;;;;;2098020;28;20448;-44
2021/12/15 01:52:16;;;;;;;;;;;;;;;;;;2097765;28;19931;-44
2021/12/15 01:53:17;;;;;;;;;;;;;;;;;;2098265;28;20011;-43
2021/12/15 01:54:18;;;;;;;;;;;;;;;;;;2098044;28;20263;-44
2021/12/15 01:55:19;;;;;;;;;;;;;;;;;;2098126;28;20259;-44
2021/12/15 01:56:20;;;;;;;;;;;;;;;;;;2097951;28;19932;-43
2021/12/15 01:57:21;;;;;;;;;;;;;;;;;;2098012;28;20011;-44
2021/12/15 01:58:22;;;;;;;;;;;;;;;;;;2098238;28;19928;-44
2021/12/15 01:59:23;;;;;;;;;;;;;;;;;;2097785;28;20019;-44
2021/12/15 02:00:24;;;;;;;;;;;;;;;;;;2098113;28;19925;-44
2021/12/15 02:01:25;;;;;;;;;;;;;;;;;;2097530;28;20023;-44
2021/12/15 02:02:26;;;;;;;;;;;;;;;;;;2098373;28;20971;-44
2021/12/15 02:03:27;;;;;;;;;;;;;;;;;;2098031;28;20463;-44
2021/12/15 02:04:31;;;;;;;;;;;;;;;;;;2097680;28;20015;-44
2021/12/15 02:05:32;;;;;;;;;;;;;;;;;;2101124;28;21366;-44
2021/12/15 02:06:33;;;;;;;;;;;;;;;;;;2106382;28;19981;-44
2021/12/15 02:07:34;;;;;;;;;;;;;;;;;;2103745;28;20358;-44
2021/12/15 02:08:35;;;;;;;;;;;;;;;;;;2099825;28;19931;-44
2021/12/15 02:10:01;;;;;;;;;;;;;;;;;;2098110;28;19924;-44
2021/12/15 02:11:21;;;;;;;;;;;;;;;;;;2099113;28;19933;-44
2021/12/15 02:12:23;;;;;;;;;;;;;;;;;;2106242;28;19982;-44
2021/12/15 02:13:24;;;;;;;;;;;;;;;;;;2104686;28;19947;-44
2021/12/15 02:14:25;;;;;;;;;;;;;;;;;;2099977;28;19999;-44
2021/12/15 02:15:26;;;;;;;;;;;;;;;;;;2106480;28;19924;-44
2021/12/15 02:16:28;;;;;;;;;;;;;;;;;;2103880;28;20019;-44
2021/12/15 02:17:30;;;;;;;;;;;;;;;;;;2100709;28;19930;-44
2021/12/15 02:18:30;;;;;;;;;;;;;;;;;;2106441;28;20010;-44
2021/12/15 02:19:31;;;;;;;;;;;;;;;;;;2102770;28;20285;-44
2021/12/15 02:20:34;;;;;;;;;;;;;;;;;;2098843;28;20015;-44
2021/12/15 02:21:35;;;;;;;;;;;;;;;;;;2098003;28;20059;-44
2021/12/15 02:22:36;;;;;;;;;;;;;;;;;;2096985;28;20008;-44
2021/12/15 02:23:40;;;;;;;;;;;;;;;;;;2098857;28;19925;-44
2021/12/15 02:24:42;;;;;;;;;;;;;;;;;;2098023;28;20011;-44
2021/12/15 02:25:43;;;;;;;;;;;;;;;;;;2097691;28;19928;-44
2021/12/15 02:26:49;;;;;;;;;;;;;;;;;;2097919;28;20444;-44
2021/12/15 02:27:50;;;;;;;;;;;;;;;;;;2097510;28;19924;-44
2021/12/15 02:28:51;;;;;;;;;;;;;;;;;;2098474;28;20023;-44
2021/12/15 02:29:59;;;;;;;;;;;;;;;;;;2098058;28;19928;-44
2021/12/15 02:31:08;;;;;;;;;;;;;;;;;;2097345;28;20376;-44
2021/12/15 02:32:17;;;;;;;;;;;;;;;;;;2098156;28;20011;-44
2021/12/15 02:33:49;;;;;;;;;;;;;;;;;;2097937;28;20015;-44
2021/12/15 02:37:30;;;;;;;;;;;;;;;;;;2098061;28;20085;-46
2021/12/15 02:38:32;;;;;;;;;;;;;;;;;;2097915;28;20015;-44
2021/12/15 02:39:33;;;;;;;;;;;;;;;;;;2097333;28;20007;-44
2021/12/15 02:40:33;;;;;;;;;;;;;;;;;;2099443;28;20378;-44
2021/12/15 02:41:34;;;;;;;;;;;;;;;;;;2106303;28;20041;-44
2021/12/15 02:42:35;;;;;;;;;;;;;;;;;;2104026;28;20034;-44
2021/12/15 02:43:36;;;;;;;;;;;;;;;;;;2098347;28;19950;-44
2021/12/15 02:44:41;;;;;;;;;;;;;;;;;;2097904;28;19924;-44
2021/12/15 02:45:42;;;;;;;;;;;;;;;;;;2102543;28;19955;-44
2021/12/15 02:46:43;;;;;;;;;;;;;;;;;;2098515;28;20300;-44
2021/12/15 02:47:44;;;;;;;;;;;;;;;;;;2097869;28;19925;-44
2021/12/15 02:48:45;;;;;;;;;;;;;;;;;;2097594;28;20000;-44
2021/12/15 02:49:46;;;;;;;;;;;;;;;;;;2098656;28;20304;-44
2021/12/15 02:50:47;;;;;;;;;;;;;;;;;;2097976;28;19970;-44
2021/12/15 02:51:48;;;;;;;;;;;;;;;;;;2096960;28;20020;-44
2021/12/15 02:52:49;;;;;;;;;;;;;;;;;;2098572;28;20011;-44
2021/12/15 02:53:50;;;;;;;;;;;;;;;;;;2097946;28;20013;-44
2021/12/15 02:54:51;;;;;;;;;;;;;;;;;;2097898;28;19977;-44
2021/12/15 02:55:52;;;;;;;;;;;;;;;;;;2105557;28;19934;-44
2021/12/15 02:56:53;;;;;;;;;;;;;;;;;;2107746;28;19939;-44
2021/12/15 02:57:54;;;;;;;;;;;;;;;;;;2101681;28;20364;-44
2021/12/15 02:58:59;;;;;;;;;;;;;;;;;;2099182;28;19928;-44
2021/12/15 03:00:03;;;;;;;;;;;;;;;;;;2099247;28;19931;-44
2021/12/15 03:01:10;;;;;;;;;;;;;;;;;;2099148;28;20000;-44
2021/12/15 03:02:24;;;;;;;;;;;;;;;;;;2099161;28;19928;-44
2021/12/15 03:03:56;;;;;;;;;;;;;;;;;;2098825;28;20011;-42
2021/12/15 03:05:06;;;;;;;;;;;;;;;;;;2106702;28;20358;-42
2021/12/15 03:06:11;;;;;;;;;;;;;;;;;;2107711;28;19924;-42
2021/12/15 03:07:16;;;;;;;;;;;;;;;;;;2099490;28;20023;-43
2021/12/15 03:08:20;;;;;;;;;;;;;;;;;;2107656;28;20015;-44
2021/12/15 03:15:51;;;;;;;;;;;;;;;;;;2097798;28;20015;-44
2021/12/15 03:16:52;;;;;;;;;;;;;;;;;;2099209;28;19925;-44
2021/12/15 03:17:53;;;;;;;;;;;;;;;;;;2099148;28;19924;-44
2021/12/15 03:18:54;;;;;;;;;;;;;;;;;;2098356;28;20449;-44
2021/12/15 03:19:55;;;;;;;;;;;;;;;;;;2107469;28;19928;-44
2021/12/15 03:20:57;;;;;;;;;;;;;;;;;;2107445;28;19924;-44
2021/12/15 03:21:58;;;;;;;;;;;;;;;;;;2099244;28;20027;-44
2021/12/15 03:22:59;;;;;;;;;;;;;;;;;;2107393;28;19932;-44
2021/12/15 03:24:00;;;;;;;;;;;;;;;;;;2106424;28;20337;-44
2021/12/15 03:25:01;;;;;;;;;;;;;;;;;;2099323;28;20010;-44
2021/12/15 03:26:02;;;;;;;;;;;;;;;;;;2099109;28;19973;-44
2021/12/15 03:27:07;;;;;;;;;;;;;;;;;;2098502;28;19943;-44
2021/12/15 03:35:03;;;;;;;;;;;;;;;;;;2080085;28;20039;-44
2021/12/15 03:36:07;;;;;;;;;;;;;;;;;;2092335;28;20108;-44
2021/12/15 03:37:22;;;;;;;;;;;;;;;;;;2101718;28;20332;-44
2021/12/15 03:38:23;;;;;;;;;;;;;;;;;;2107354;28;19969;-44
2021/12/15 03:39:24;;;;;;;;;;;;;;;;;;2101563;28;19936;-44
2021/12/15 03:40:25;;;;;;;;;;;;;;;;;;2099175;28;20019;-43
2021/12/15 03:41:26;;;;;;;;;;;;;;;;;;2099125;28;20011;-44
2021/12/15 03:42:28;;;;;;;;;;;;;;;;;;2097715;28;19932;-44
2021/12/15 03:43:31;;;;;;;;;;;;;;;;;;2106551;28;20399;-44
2021/12/15 03:44:32;;;;;;;;;;;;;;;;;;2104948;28;20010;-44
2021/12/15 03:45:33;;;;;;;;;;;;;;;;;;2099958;28;20049;-44
2021/12/15 03:46:34;;;;;;;;;;;;;;;;;;2098950;28;20015;-44
2021/12/15 03:47:35;;;;;;;;;;;;;;;;;;2098876;28;19925;-44
2021/12/15 03:48:35;;;;;;;;;;;;;;;;;;2098819;28;20020;-44
2021/12/15 03:49:36;;;;;;;;;;;;;;;;;;2098989;28;19928;-44
2021/12/15 03:50:37;;;;;;;;;;;;;;;;;;2098945;28;19924;-44
2021/12/15 03:51:38;;;;;;;;;;;;;;;;;;2100216;28;19974;-44
2021/12/15 03:52:39;;;;;;;;;;;;;;;;;;2098890;28;20452;-44
2021/12/15 03:53:40;;;;;;;;;;;;;;;;;;2098343;28;19925;-43
2021/12/15 03:54:41;;;;;;;;;;;;;;;;;;2099247;28;20011;-44
2021/12/15 03:55:42;;;;;;;;;;;;;;;;;;2099016;28;20461;-44
2021/12/15 03:56:43;;;;;;;;;;;;;;;;;;2098508;28;19932;-44
2021/12/15 03:57:44;;;;;;;;;;;;;;;;;;2099958;28;19985;-44
2021/12/15 03:58:45;;;;;;;;;;;;;;;;;;2107217;28;20011;-44
2021/12/15 03:59:47;;;;;;;;;;;;;;;;;;2104744;28;19989;-44
2021/12/15 04:00:48;;;;;;;;;;;;;;;;;;2099185;28;20456;-44
2021/12/15 04:01:49;;;;;;;;;;;;;;;;;;2098804;28;19924;-44
2021/12/15 04:02:50;;;;;;;;;;;;;;;;;;2098011;28;19931;-44
2021/12/15 04:03:51;;;;;;;;;;;;;;;;;;2103527;28;19928;-44
2021/12/15 04:04:52;;;;;;;;;;;;;;;;;;2107198;28;20014;-44
2021/12/15 04:05:53;;;;;;;;;;;;;;;;;;2102936;28;20007;-44
2021/12/15 04:06:54;;;;;;;;;;;;;;;;;;2099586;28;19928;-44
2021/12/15 04:07:54;;;;;;;;;;;;;;;;;;2098709;28;20011;-48
2021/12/15 04:08:56;;;;;;;;;;;;;;;;;;2097979;28;19928;-44
2021/12/15 04:09:56;;;;;;;;;;;;;;;;;;2104072;28;20011;-44
2021/12/15 04:10:57;;;;;;;;;;;;;;;;;;2107185;28;20319;-44
2021/12/15 04:11:59;;;;;;;;;;;;;;;;;;2101370;28;20453;-44
2021/12/15 04:13:00;;;;;;;;;;;;;;;;;;2104191;28;20006;-44
2021/12/15 04:14:01;;;;;;;;;;;;;;;;;;2107138;28;20006;-44
2021/12/15 04:15:08;;;;;;;;;;;;;;;;;;2102378;28;19973;-44
2021/12/15 04:16:15;;;;;;;;;;;;;;;;;;2098146;28;19991;-44
2021/12/15 04:17:30;;;;;;;;;;;;;;;;;;2098757;28;20365;-44
2021/12/15 04:18:31;;;;;;;;;;;;;;;;;;2098190;28;19924;-44
2021/12/15 04:19:32;;;;;;;;;;;;;;;;;;2098884;28;20379;-44
2021/12/15 04:20:33;;;;;;;;;;;;;;;;;;2098138;28;20019;-44
2021/12/15 04:21:34;;;;;;;;;;;;;;;;;;2100303;28;19925;-44
2021/12/15 04:22:35;;;;;;;;;;;;;;;;;;2098718;28;20377;-44
2021/12/15 04:23:36;;;;;;;;;;;;;;;;;;2097735;28;20008;-44
2021/12/15 04:24:37;;;;;;;;;;;;;;;;;;2099398;28;19925;-44
2021/12/15 04:25:38;;;;;;;;;;;;;;;;;;2098711;28;20011;-44
2021/12/15 04:26:39;;;;;;;;;;;;;;;;;;2097923;28;20278;-44
2021/12/15 04:27:39;;;;;;;;;;;;;;;;;;2099306;28;20007;-44
2021/12/15 04:28:40;;;;;;;;;;;;;;;;;;2098681;28;19977;-44
2021/12/15 04:29:41;;;;;;;;;;;;;;;;;;2097779;28;20014;-44
2021/12/15 04:30:43;;;;;;;;;;;;;;;;;;2103920;28;20345;-43
2021/12/15 04:31:44;;;;;;;;;;;;;;;;;;2107145;28;19963;-44
2021/12/15 04:32:45;;;;;;;;;;;;;;;;;;2101179;28;20277;-44
2021/12/15 04:33:46;;;;;;;;;;;;;;;;;;2104877;28;19959;-44
2021/12/15 04:34:47;;;;;;;;;;;;;;;;;;2107163;28;19931;-44
2021/12/15 04:35:49;;;;;;;;;;;;;;;;;;2100365;28;20015;-44
2021/12/15 04:36:51;;;;;;;;;;;;;;;;;;2099581;28;19973;-44
2021/12/15 04:37:52;;;;;;;;;;;;;;;;;;2098651;28;19924;-44
2021/12/15 04:38:53;;;;;;;;;;;;;;;;;;2098676;28;19997;-44
2021/12/15 04:39:54;;;;;;;;;;;;;;;;;;2098602;28;19929;-44
2021/12/15 04:40:55;;;;;;;;;;;;;;;;;;2098466;28;20355;-44
2021/12/15 04:41:57;;;;;;;;;;;;;;;;;;2098398;28;19971;-44
2021/12/15 04:42:59;;;;;;;;;;;;;;;;;;2098530;28;19929;-44
2021/12/15 04:44:01;;;;;;;;;;;;;;;;;;2098547;28;20357;-44
2021/12/15 04:45:02;;;;;;;;;;;;;;;;;;2097685;28;20023;-44
2021/12/15 04:46:03;;;;;;;;;;;;;;;;;;2106911;28;20300;-44
2021/12/15 04:47:05;;;;;;;;;;;;;;;;;;2105844;28;19977;-44
2021/12/15 04:48:06;;;;;;;;;;;;;;;;;;2099905;28;20007;-44
2021/12/15 04:49:07;;;;;;;;;;;;;;;;;;2098573;28;20349;-44
2021/12/15 04:50:08;;;;;;;;;;;;;;;;;;2097999;28;19931;-44
2021/12/15 04:51:08;;;;;;;;;;;;;;;;;;2099606;28;20019;-43
2021/12/15 04:52:10;;;;;;;;;;;;;;;;;;2106905;28;20430;-44
2021/12/15 04:53:10;;;;;;;;;;;;;;;;;;2102951;28;20011;-44
2021/12/15 04:54:11;;;;;;;;;;;;;;;;;;2098952;28;19929;-44
2021/12/15 04:55:12;;;;;;;;;;;;;;;;;;2098639;28;19974;-44
2021/12/15 04:56:13;;;;;;;;;;;;;;;;;;2097912;28;20339;-43
2021/12/15 04:57:14;;;;;;;;;;;;;;;;;;2099981;28;20300;-44
2021/12/15 04:58:15;;;;;;;;;;;;;;;;;;2098576;28;19925;-44
2021/12/15 04:59:16;;;;;;;;;;;;;;;;;;2097759;28;20361;-44
2021/12/15 05:00:17;;;;;;;;;;;;;;;;;;2099379;28;20022;-44
2021/12/15 05:01:18;;;;;;;;;;;;;;;;;;2098522;28;20019;-44
2021/12/15 05:02:19;;;;;;;;;;;;;;;;;;2097562;28;20281;-44
2021/12/15 05:03:20;;;;;;;;;;;;;;;;;;2106226;28;20014;-44
2021/12/15 05:04:21;;;;;;;;;;;;;;;;;;2106881;28;19931;-44
2021/12/15 05:05:22;;;;;;;;;;;;;;;;;;2100952;28;20053;-44
2021/12/15 05:06:23;;;;;;;;;;;;;;;;;;2098379;28;19932;-44
2021/12/15 05:07:24;;;;;;;;;;;;;;;;;;2098460;28;20074;-44
2021/12/15 05:08:25;;;;;;;;;;;;;;;;;;2099186;28;19936;-44
2021/12/15 05:09:25;;;;;;;;;;;;;;;;;;2098566;28;19931;-44
2021/12/15 05:10:26;;;;;;;;;;;;;;;;;;2098391;28;20400;-43
2021/12/15 05:11:27;;;;;;;;;;;;;;;;;;2098190;28;20314;-44
2021/12/15 05:12:28;;;;;;;;;;;;;;;;;;2098427;28;19925;-44
2021/12/15 05:13:29;;;;;;;;;;;;;;;;;;2097989;28;20015;-44
2021/12/15 05:14:30;;;;;;;;;;;;;;;;;;2098645;28;19928;-44
2021/12/15 05:15:31;;;;;;;;;;;;;;;;;;2098558;28;20016;-44
2021/12/15 05:16:32;;;;;;;;;;;;;;;;;;2097977;28;19948;-44
2021/12/15 05:17:33;;;;;;;;;;;;;;;;;;2097975;28;20034;-43
2021/12/15 05:18:34;;;;;;;;;;;;;;;;;;2098529;28;20395;-44
2021/12/15 05:19:34;;;;;;;;;;;;;;;;;;2097651;28;20015;-44
2021/12/15 05:20:38;;;;;;;;;;;;;;;;;;2098838;28;20355;-44
2021/12/15 05:21:39;;;;;;;;;;;;;;;;;;2098482;28;19931;-43
2021/12/15 05:22:40;;;;;;;;;;;;;;;;;;2097298;28;20452;-46
2021/12/15 05:23:44;;;;;;;;;;;;;;;;;;2102195;28;20051;-44
2021/12/15 05:24:45;;;;;;;;;;;;;;;;;;2106539;28;20463;-44
2021/12/15 05:25:46;;;;;;;;;;;;;;;;;;2101954;28;20445;-44
2021/12/15 05:26:47;;;;;;;;;;;;;;;;;;2103418;28;19978;-44
2021/12/15 05:27:48;;;;;;;;;;;;;;;;;;2106706;28;20014;-44
2021/12/15 05:28:49;;;;;;;;;;;;;;;;;;2101226;28;19956;-44
2021/12/15 05:29:50;;;;;;;;;;;;;;;;;;2104209;28;19963;-44
2021/12/15 05:30:51;;;;;;;;;;;;;;;;;;2106682;28;19970;-43
2021/12/15 05:31:52;;;;;;;;;;;;;;;;;;2101578;28;19929;-44
2021/12/15 05:32:53;;;;;;;;;;;;;;;;;;2104785;28;20014;-44
2021/12/15 05:33:54;;;;;;;;;;;;;;;;;;2106715;28;19928;-43
2021/12/15 05:34:57;;;;;;;;;;;;;;;;;;2101763;28;20002;-44
2021/12/15 05:35:58;;;;;;;;;;;;;;;;;;2098117;28;20319;-44
2021/12/15 05:36:59;;;;;;;;;;;;;;;;;;2097975;28;19956;-44
2021/12/15 05:38:00;;;;;;;;;;;;;;;;;;2097019;28;20354;-44
2021/12/15 05:39:00;;;;;;;;;;;;;;;;;;2098217;28;19924;-44
2021/12/15 05:40:01;;;;;;;;;;;;;;;;;;2098138;28;19924;-44
2021/12/15 05:41:02;;;;;;;;;;;;;;;;;;2097983;28;20289;-44
2021/12/15 05:42:03;;;;;;;;;;;;;;;;;;2098019;28;19935;-44
2021/12/15 05:43:04;;;;;;;;;;;;;;;;;;2098138;28;20008;-44
2021/12/15 05:44:05;;;;;;;;;;;;;;;;;;2097795;28;19948;-44
2021/12/15 05:45:06;;;;;;;;;;;;;;;;;;2105183;28;19974;-44
2021/12/15 05:46:07;;;;;;;;;;;;;;;;;;2105733;28;19998;-44
2021/12/15 05:47:08;;;;;;;;;;;;;;;;;;2098640;28;19928;-59
2021/12/15 05:48:10;;;;;;;;;;;;;;;;;;2098312;28;19946;-59
2021/12/15 05:49:11;;;;;;;;;;;;;;;;;;2097658;28;19987;-59
2021/12/15 05:50:12;;;;;;;;;;;;;;;;;;2098409;28;20027;-59
2021/12/15 05:51:13;;;;;;;;;;;;;;;;;;2098164;28;19934;-59
2021/12/15 05:52:13;;;;;;;;;;;;;;;;;;2097531;28;20404;-59
2021/12/15 05:53:15;;;;;;;;;;;;;;;;;;2098536;28;19974;-59
2021/12/15 05:54:16;;;;;;;;;;;;;;;;;;2098244;28;19963;-59
2021/12/15 05:55:17;;;;;;;;;;;;;;;;;;2097338;28;19924;-59
2021/12/15 05:56:18;;;;;;;;;;;;;;;;;;2097837;28;19925;-60
2021/12/15 05:57:19;;;;;;;;;;;;;;;;;;2098155;28;20007;-59
2021/12/15 05:58:20;;;;;;;;;;;;;;;;;;2097870;28;20007;-59
2021/12/15 05:59:21;;;;;;;;;;;;;;;;;;2099151;28;19928;-59
2021/12/15 06:00:22;;;;;;;;;;;;;;;;;;2098091;28;20011;-59
2021/12/15 06:01:23;;;;;;;;;;;;;;;;;;2097100;28;20354;-59
2021/12/15 06:02:23;;;;;;;;;;;;;;;;;;2103030;28;19924;-59
2021/12/15 06:03:25;;;;;;;;;;;;;;;;;;2106429;28;19939;-60
2021/12/15 06:04:25;;;;;;;;;;;;;;;;;;2100792;28;19924;-59
2021/12/15 06:05:26;;;;;;;;;;;;;;;;;;2103971;28;19925;-60
2021/12/15 06:06:27;;;;;;;;;;;;;;;;;;2106447;28;19931;-60
2021/12/15 06:07:28;;;;;;;;;;;;;;;;;;2100258;28;19932;-59
2021/12/15 06:08:29;;;;;;;;;;;;;;;;;;2104574;28;20024;-60
2021/12/15 06:09:30;;;;;;;;;;;;;;;;;;2106394;28;20384;-59
2021/12/15 06:10:31;;;;;;;;;;;;;;;;;;2100483;28;19936;-59
2021/12/15 06:11:32;;;;;;;;;;;;;;;;;;2097867;28;20373;-60
2021/12/15 06:12:33;;;;;;;;;;;;;;;;;;2097953;28;19928;-59
2021/12/15 06:13:34;;;;;;;;;;;;;;;;;;2097933;28;19925;-59
2021/12/15 06:14:35;;;;;;;;;;;;;;;;;;2097910;28;19931;-59
2021/12/15 06:15:35;;;;;;;;;;;;;;;;;;2097895;28;19936;-59
2021/12/15 06:16:37;;;;;;;;;;;;;;;;;;2097846;28;19925;-59
2021/12/15 06:17:37;;;;;;;;;;;;;;;;;;2098063;28;19925;-59
2021/12/15 06:18:38;;;;;;;;;;;;;;;;;;2098112;28;19924;-60
2021/12/15 06:19:39;;;;;;;;;;;;;;;;;;2097823;28;19963;-59
2021/12/15 06:20:40;;;;;;;;;;;;;;;;;;2097869;28;19924;-59
2021/12/15 06:21:41;;;;;;;;;;;;;;;;;;2097484;28;19924;-59
2021/12/15 06:22:44;;;;;;;;;;;;;;;;;;2098009;28;20011;-59
2021/12/15 06:23:47;;;;;;;;;;;;;;;;;;2098095;28;20288;-59
2021/12/15 06:24:47;;;;;;;;;;;;;;;;;;2097379;28;20015;-59
2021/12/15 06:25:48;;;;;;;;;;;;;;;;;;2098280;28;19924;-59
2021/12/15 06:26:50;;;;;;;;;;;;;;;;;;2097850;28;20460;-60
2021/12/15 06:27:50;;;;;;;;;;;;;;;;;;2097216;28;20468;-59
2021/12/15 06:28:52;;;;;;;;;;;;;;;;;;2098811;28;19925;-59
2021/12/15 06:29:53;;;;;;;;;;;;;;;;;;2097646;28;19928;-59
2021/12/15 06:30:54;;;;;;;;;;;;;;;;;;2096925;28;20460;-59
2021/12/15 06:31:55;;;;;;;;;;;;;;;;;;2101709;28;19924;-60
2021/12/15 06:32:56;;;;;;;;;;;;;;;;;;2106311;28;20449;-59
2021/12/15 06:33:57;;;;;;;;;;;;;;;;;;2098837;28;19931;-59
2021/12/15 06:34:58;;;;;;;;;;;;;;;;;;2098572;28;19928;-59
2021/12/15 06:36:00;;;;;;;;;;;;;;;;;;2097878;28;19975;-59
2021/12/15 06:37:02;;;;;;;;;;;;;;;;;;2096927;28;20066;-59
2021/12/15 06:38:02;;;;;;;;;;;;;;;;;;2103511;28;20015;-60
2021/12/15 06:39:03;;;;;;;;;;;;;;;;;;2106204;28;19977;-59
2021/12/15 06:40:07;;;;;;;;;;;;;;;;;;2100336;28;20426;-60
2021/12/15 06:41:08;;;;;;;;;;;;;;;;;;2098182;28;20011;-59
2021/12/15 06:42:09;;;;;;;;;;;;;;;;;;2097977;28;20294;-59
2021/12/15 06:43:10;;;;;;;;;;;;;;;;;;2096721;28;19932;-59
2021/12/15 06:44:13;;;;;;;;;;;;;;;;;;2098548;28;20026;-60
2021/12/15 06:45:17;;;;;;;;;;;;;;;;;;2103468;28;20035;-59
2021/12/15 06:46:41;;;;;;;;;;;;;;;;;;2099678;28;20030;-60
2021/12/15 06:57:31;;;;;;;;;;;;;;;;;;2106091;28;20420;-60
2021/12/15 06:58:31;;;;;;;;;;;;;;;;;;2097778;28;19930;-59
2021/12/15 06:59:32;;;;;;;;;;;;;;;;;;2097892;28;19947;-59
2021/12/15 07:00:33;;;;;;;;;;;;;;;;;;2096735;28;19972;-59
2021/12/15 07:01:34;;;;;;;;;;;;;;;;;;2098491;28;19931;-59
2021/12/15 07:02:35;;;;;;;;;;;;;;;;;;2097735;28;19932;-60
2021/12/15 07:03:37;;;;;;;;;;;;;;;;;;2097096;28;19932;-59
2021/12/15 07:04:37;;;;;;;;;;;;;;;;;;2098297;28;19987;-59
2021/12/15 07:05:38;;;;;;;;;;;;;;;;;;2097697;28;19925;-60
2021/12/15 07:06:39;;;;;;;;;;;;;;;;;;2096855;28;19924;-60
2021/12/15 07:07:40;;;;;;;;;;;;;;;;;;2102797;28;20003;-58
2021/12/15 07:08:41;;;;;;;;;;;;;;;;;;2106241;28;19924;-59
2021/12/15 07:09:42;;;;;;;;;;;;;;;;;;2100483;28;20014;-59
2021/12/15 07:10:43;;;;;;;;;;;;;;;;;;2103667;28;19928;-59
2021/12/15 07:11:44;;;;;;;;;;;;;;;;;;2105985;28;20372;-59
2021/12/15 07:12:45;;;;;;;;;;;;;;;;;;2100297;28;20511;-59
2021/12/15 07:13:46;;;;;;;;;;;;;;;;;;2098033;28;19924;-59
2021/12/15 07:14:47;;;;;;;;;;;;;;;;;;2097721;28;20012;-59
2021/12/15 07:15:48;;;;;;;;;;;;;;;;;;2097682;28;19947;-59
2021/12/15 07:16:51;;;;;;;;;;;;;;;;;;2097546;28;19925;-59
2021/12/15 07:18:00;;;;;;;;;;;;;;;;;;2097716;28;19956;-59
2021/12/15 07:19:08;;;;;;;;;;;;;;;;;;2097343;28;20441;-59
2021/12/15 07:20:30;;;;;;;;;;;;;;;;;;2106071;28;20439;-59
2021/12/15 07:21:35;;;;;;;;;;;;;;;;;;2100898;28;20319;-59
2021/12/15 07:22:43;;;;;;;;;;;;;;;;;;2103608;28;19924;-59
2021/12/15 07:23:44;;;;;;;;;;;;;;;;;;2105994;28;20401;-59
2021/12/15 07:24:45;;;;;;;;;;;;;;;;;;2098833;28;19994;-59
2021/12/15 07:25:46;;;;;;;;;;;;;;;;;;2097834;28;20058;-58
2021/12/15 07:26:49;;;;;;;;;;;;;;;;;;2097666;28;19947;-59
2021/12/15 07:27:50;;;;;;;;;;;;;;;;;;2097278;28;20015;-59
2021/12/15 07:28:51;;;;;;;;;;;;;;;;;;2097725;28;19973;-58
2021/12/15 07:29:52;;;;;;;;;;;;;;;;;;2097395;28;19924;-58
2021/12/15 07:30:54;;;;;;;;;;;;;;;;;;2098513;28;19928;-58
2021/12/15 07:31:56;;;;;;;;;;;;;;;;;;2097558;28;19986;-58
2021/12/15 07:32:56;;;;;;;;;;;;;;;;;;2097135;28;20156;-58
2021/12/15 07:33:57;;;;;;;;;;;;;;;;;;2097778;28;19924;-58
2021/12/15 07:34:58;;;;;;;;;;;;;;;;;;2097546;28;20018;-58
2021/12/15 07:35:59;;;;;;;;;;;;;;;;;;2097247;28;20370;-59
2021/12/15 07:37:00;;;;;;;;;;;;;;;;;;2100342;28;20015;-59
2021/12/15 07:38:01;;;;;;;;;;;;;;;;;;2106061;28;19924;-59